sensor_id;sensor_type;location;lat;lon;timestamp;P1;durP1;ratioP1;P2;durP2;ratioP2
79790;SDS011;69278;52.220;5.172;2023-05-07T00:00:05;32.42;;;19.10;;
79790;SDS011;69278;52.220;5.172;2023-05-07T00:02:35;32.28;;;18.70;;
79790;SDS011;69278;52.220;5.172;2023-05-07T00:05:02;30.98;;;18.92;;
79790;SDS011;69278;52.220;5.172;2023-05-07T00:07:30;29.80;;;17.40;;
79790;SDS011;69278;52.220;5.172;2023-05-07T00:09:56;28.80;;;18.55;;
79790;SDS011;69278;52.220;5.172;2023-05-07T00:12:22;28.45;;;17.77;;
79790;SDS011;69278;52.220;5.172;2023-05-07T00:14:49;27.70;;;17.58;;
79790;SDS011;69278;52.220;5.172;2023-05-07T00:17:15;31.10;;;18.38;;
79790;SDS011;69278;52.220;5.172;2023-05-07T00:19:42;30.93;;;18.47;;
79790;SDS011;69278;52.220;5.172;2023-05-07T00:22:08;28.75;;;18.25;;
79790;SDS011;69278;52.220;5.172;2023-05-07T00:24:35;30.65;;;18.85;;
79790;SDS011;69278;52.220;5.172;2023-05-07T00:27:01;30.63;;;17.95;;
79790;SDS011;69278;52.220;5.172;2023-05-07T00:29:28;27.23;;;17.65;;
79790;SDS011;69278;52.220;5.172;2023-05-07T00:31:54;26.93;;;16.77;;
79790;SDS011;69278;52.220;5.172;2023-05-07T00:34:21;24.80;;;16.92;;
79790;SDS011;69278;52.220;5.172;2023-05-07T00:36:48;26.70;;;17.77;;
79790;SDS011;69278;52.220;5.172;2023-05-07T00:39:14;26.52;;;16.75;;
79790;SDS011;69278;52.220;5.172;2023-05-07T00:41:41;27.02;;;16.80;;
79790;SDS011;69278;52.220;5.172;2023-05-07T00:44:07;23.50;;;16.27;;
79790;SDS011;69278;52.220;5.172;2023-05-07T00:46:34;25.45;;;17.10;;
79790;SDS011;69278;52.220;5.172;2023-05-07T00:49:01;23.38;;;16.20;;
79790;SDS011;69278;52.220;5.172;2023-05-07T00:51:28;23.73;;;15.95;;
79790;SDS011;69278;52.220;5.172;2023-05-07T00:53:54;22.60;;;16.05;;
79790;SDS011;69278;52.220;5.172;2023-05-07T00:56:21;25.00;;;16.20;;
79790;SDS011;69278;52.220;5.172;2023-05-07T00:58:48;20.75;;;15.35;;
79790;SDS011;69278;52.220;5.172;2023-05-07T01:01:15;24.50;;;16.38;;
79790;SDS011;69278;52.220;5.172;2023-05-07T01:03:42;22.48;;;15.77;;
79790;SDS011;69278;52.220;5.172;2023-05-07T01:06:10;22.50;;;15.10;;
79790;SDS011;69278;52.220;5.172;2023-05-07T01:08:39;20.30;;;14.73;;
79790;SDS011;69278;52.220;5.172;2023-05-07T01:11:07;21.08;;;14.60;;
79790;SDS011;69278;52.220;5.172;2023-05-07T01:13:35;23.55;;;15.30;;
79790;SDS011;69278;52.220;5.172;2023-05-07T01:16:03;24.77;;;15.40;;
79790;SDS011;69278;52.220;5.172;2023-05-07T01:18:29;22.10;;;15.80;;
79790;SDS011;69278;52.220;5.172;2023-05-07T01:20:57;23.70;;;15.23;;
79790;SDS011;69278;52.220;5.172;2023-05-07T01:23:25;23.33;;;15.13;;
79790;SDS011;69278;52.220;5.172;2023-05-07T01:25:54;24.73;;;15.32;;
79790;SDS011;69278;52.220;5.172;2023-05-07T01:28:21;23.20;;;14.98;;
79790;SDS011;69278;52.220;5.172;2023-05-07T01:30:49;22.05;;;14.60;;
79790;SDS011;69278;52.220;5.172;2023-05-07T01:33:20;20.10;;;14.80;;
79790;SDS011;69278;52.220;5.172;2023-05-07T01:35:50;20.98;;;14.85;;
79790;SDS011;69278;52.220;5.172;2023-05-07T01:38:20;24.00;;;15.20;;
79790;SDS011;69278;52.220;5.172;2023-05-07T01:40:48;21.98;;;14.45;;
79790;SDS011;69278;52.220;5.172;2023-05-07T01:43:15;21.90;;;15.02;;
79790;SDS011;69278;52.220;5.172;2023-05-07T01:45:42;21.43;;;15.00;;
79790;SDS011;69278;52.220;5.172;2023-05-07T01:48:10;22.30;;;15.55;;
79790;SDS011;69278;52.220;5.172;2023-05-07T01:50:37;21.55;;;15.18;;
79790;SDS011;69278;52.220;5.172;2023-05-07T01:53:05;21.75;;;14.90;;
79790;SDS011;69278;52.220;5.172;2023-05-07T01:55:32;20.08;;;14.50;;
79790;SDS011;69278;52.220;5.172;2023-05-07T01:57:59;21.87;;;15.03;;
79790;SDS011;69278;52.220;5.172;2023-05-07T02:00:25;22.42;;;15.35;;
79790;SDS011;69278;52.220;5.172;2023-05-07T02:02:52;21.00;;;14.75;;
79790;SDS011;69278;52.220;5.172;2023-05-07T02:05:19;21.08;;;14.85;;
79790;SDS011;69278;52.220;5.172;2023-05-07T02:07:46;22.13;;;14.65;;
79790;SDS011;69278;52.220;5.172;2023-05-07T02:10:13;19.13;;;14.03;;
79790;SDS011;69278;52.220;5.172;2023-05-07T02:12:39;19.92;;;14.00;;
79790;SDS011;69278;52.220;5.172;2023-05-07T02:15:06;20.25;;;14.05;;
79790;SDS011;69278;52.220;5.172;2023-05-07T02:17:33;20.55;;;14.38;;
79790;SDS011;69278;52.220;5.172;2023-05-07T02:20:00;20.80;;;14.02;;
79790;SDS011;69278;52.220;5.172;2023-05-07T02:22:26;20.57;;;14.50;;
79790;SDS011;69278;52.220;5.172;2023-05-07T02:24:52;20.35;;;14.75;;
79790;SDS011;69278;52.220;5.172;2023-05-07T02:27:19;21.38;;;13.73;;
79790;SDS011;69278;52.220;5.172;2023-05-07T02:29:45;19.73;;;13.55;;
79790;SDS011;69278;52.220;5.172;2023-05-07T02:32:12;19.38;;;13.95;;
79790;SDS011;69278;52.220;5.172;2023-05-07T02:34:38;22.27;;;14.57;;
79790;SDS011;69278;52.220;5.172;2023-05-07T02:37:05;20.50;;;14.18;;
79790;SDS011;69278;52.220;5.172;2023-05-07T02:39:31;20.38;;;13.57;;
79790;SDS011;69278;52.220;5.172;2023-05-07T02:41:58;21.15;;;13.68;;
79790;SDS011;69278;52.220;5.172;2023-05-07T02:44:24;22.17;;;13.80;;
79790;SDS011;69278;52.220;5.172;2023-05-07T02:46:51;20.57;;;13.93;;
79790;SDS011;69278;52.220;5.172;2023-05-07T02:49:18;22.02;;;14.13;;
79790;SDS011;69278;52.220;5.172;2023-05-07T02:51:45;20.60;;;14.15;;
79790;SDS011;69278;52.220;5.172;2023-05-07T02:54:11;21.27;;;13.80;;
79790;SDS011;69278;52.220;5.172;2023-05-07T02:56:38;18.70;;;13.65;;
79790;SDS011;69278;52.220;5.172;2023-05-07T02:59:04;20.37;;;13.93;;
79790;SDS011;69278;52.220;5.172;2023-05-07T03:01:31;21.90;;;14.13;;
79790;SDS011;69278;52.220;5.172;2023-05-07T03:03:57;19.42;;;13.98;;
79790;SDS011;69278;52.220;5.172;2023-05-07T03:06:23;20.13;;;13.55;;
79790;SDS011;69278;52.220;5.172;2023-05-07T03:08:50;19.95;;;14.10;;
79790;SDS011;69278;52.220;5.172;2023-05-07T03:11:17;18.30;;;14.00;;
79790;SDS011;69278;52.220;5.172;2023-05-07T03:13:43;21.45;;;13.85;;
79790;SDS011;69278;52.220;5.172;2023-05-07T03:16:10;22.73;;;14.20;;
79790;SDS011;69278;52.220;5.172;2023-05-07T03:18:37;20.08;;;13.82;;
79790;SDS011;69278;52.220;5.172;2023-05-07T03:21:03;20.35;;;14.27;;
79790;SDS011;69278;52.220;5.172;2023-05-07T03:23:30;20.50;;;14.33;;
79790;SDS011;69278;52.220;5.172;2023-05-07T03:25:56;20.65;;;14.40;;
79790;SDS011;69278;52.220;5.172;2023-05-07T03:28:22;20.65;;;14.60;;
79790;SDS011;69278;52.220;5.172;2023-05-07T03:30:49;21.48;;;14.45;;
79790;SDS011;69278;52.220;5.172;2023-05-07T03:33:15;20.30;;;14.82;;
79790;SDS011;69278;52.220;5.172;2023-05-07T03:35:42;22.30;;;14.17;;
79790;SDS011;69278;52.220;5.172;2023-05-07T03:38:08;22.25;;;14.50;;
79790;SDS011;69278;52.220;5.172;2023-05-07T03:40:35;21.40;;;14.43;;
79790;SDS011;69278;52.220;5.172;2023-05-07T03:43:01;22.42;;;14.45;;
79790;SDS011;69278;52.220;5.172;2023-05-07T03:45:28;20.95;;;15.05;;
79790;SDS011;69278;52.220;5.172;2023-05-07T03:47:54;21.00;;;15.00;;
79790;SDS011;69278;52.220;5.172;2023-05-07T03:50:21;20.88;;;15.10;;
79790;SDS011;69278;52.220;5.172;2023-05-07T03:52:47;22.10;;;15.27;;
79790;SDS011;69278;52.220;5.172;2023-05-07T03:55:14;21.25;;;14.77;;
79790;SDS011;69278;52.220;5.172;2023-05-07T03:57:40;23.88;;;15.25;;
79790;SDS011;69278;52.220;5.172;2023-05-07T04:00:07;24.77;;;16.30;;
79790;SDS011;69278;52.220;5.172;2023-05-07T04:02:35;23.55;;;15.95;;
79790;SDS011;69278;52.220;5.172;2023-05-07T04:05:01;22.35;;;15.73;;
79790;SDS011;69278;52.220;5.172;2023-05-07T04:07:28;24.08;;;15.77;;
79790;SDS011;69278;52.220;5.172;2023-05-07T04:09:54;26.20;;;16.05;;
79790;SDS011;69278;52.220;5.172;2023-05-07T04:12:21;24.40;;;16.20;;
79790;SDS011;69278;52.220;5.172;2023-05-07T04:14:47;23.52;;;16.23;;
79790;SDS011;69278;52.220;5.172;2023-05-07T04:17:14;23.77;;;15.52;;
79790;SDS011;69278;52.220;5.172;2023-05-07T04:19:40;23.65;;;15.88;;
79790;SDS011;69278;52.220;5.172;2023-05-07T04:22:11;25.23;;;16.15;;
79790;SDS011;69278;52.220;5.172;2023-05-07T04:24:38;21.63;;;15.47;;
79790;SDS011;69278;52.220;5.172;2023-05-07T04:27:04;22.95;;;15.52;;
79790;SDS011;69278;52.220;5.172;2023-05-07T04:29:32;23.35;;;15.50;;
79790;SDS011;69278;52.220;5.172;2023-05-07T04:31:58;22.63;;;15.75;;
79790;SDS011;69278;52.220;5.172;2023-05-07T04:34:25;21.90;;;15.55;;
79790;SDS011;69278;52.220;5.172;2023-05-07T04:36:51;22.33;;;15.53;;
79790;SDS011;69278;52.220;5.172;2023-05-07T04:39:18;22.52;;;15.80;;
79790;SDS011;69278;52.220;5.172;2023-05-07T04:41:44;23.27;;;16.30;;
79790;SDS011;69278;52.220;5.172;2023-05-07T04:44:11;21.27;;;15.07;;
79790;SDS011;69278;52.220;5.172;2023-05-07T04:46:38;22.25;;;15.88;;
79790;SDS011;69278;52.220;5.172;2023-05-07T04:49:04;22.23;;;15.57;;
79790;SDS011;69278;52.220;5.172;2023-05-07T04:51:31;21.85;;;15.45;;
79790;SDS011;69278;52.220;5.172;2023-05-07T04:53:58;23.95;;;16.33;;
79790;SDS011;69278;52.220;5.172;2023-05-07T04:56:27;22.65;;;15.32;;
79790;SDS011;69278;52.220;5.172;2023-05-07T04:58:54;20.98;;;15.02;;
79790;SDS011;69278;52.220;5.172;2023-05-07T05:01:20;20.73;;;14.37;;
79790;SDS011;69278;52.220;5.172;2023-05-07T05:03:47;21.90;;;14.63;;
79790;SDS011;69278;52.220;5.172;2023-05-07T05:06:13;20.60;;;14.13;;
79790;SDS011;69278;52.220;5.172;2023-05-07T05:08:39;22.23;;;13.85;;
79790;SDS011;69278;52.220;5.172;2023-05-07T05:11:06;22.08;;;14.23;;
79790;SDS011;69278;52.220;5.172;2023-05-07T05:13:32;18.90;;;13.73;;
79790;SDS011;69278;52.220;5.172;2023-05-07T05:15:59;20.80;;;13.43;;
79790;SDS011;69278;52.220;5.172;2023-05-07T05:18:26;20.45;;;14.20;;
79790;SDS011;69278;52.220;5.172;2023-05-07T05:20:52;20.95;;;14.20;;
79790;SDS011;69278;52.220;5.172;2023-05-07T05:23:19;19.80;;;14.10;;
79790;SDS011;69278;52.220;5.172;2023-05-07T05:25:46;21.03;;;14.33;;
79790;SDS011;69278;52.220;5.172;2023-05-07T05:28:12;18.95;;;13.75;;
79790;SDS011;69278;52.220;5.172;2023-05-07T05:30:39;20.67;;;14.05;;
79790;SDS011;69278;52.220;5.172;2023-05-07T05:33:05;19.33;;;14.02;;
79790;SDS011;69278;52.220;5.172;2023-05-07T05:35:32;19.48;;;13.88;;
79790;SDS011;69278;52.220;5.172;2023-05-07T05:37:58;21.80;;;14.80;;
79790;SDS011;69278;52.220;5.172;2023-05-07T05:40:25;22.08;;;14.02;;
79790;SDS011;69278;52.220;5.172;2023-05-07T05:42:51;22.13;;;14.20;;
79790;SDS011;69278;52.220;5.172;2023-05-07T05:45:18;20.40;;;14.30;;
79790;SDS011;69278;52.220;5.172;2023-05-07T05:47:44;20.73;;;14.27;;
79790;SDS011;69278;52.220;5.172;2023-05-07T05:50:11;19.60;;;14.10;;
79790;SDS011;69278;52.220;5.172;2023-05-07T05:52:38;19.90;;;14.05;;
79790;SDS011;69278;52.220;5.172;2023-05-07T05:55:04;20.92;;;14.52;;
79790;SDS011;69278;52.220;5.172;2023-05-07T05:57:31;19.98;;;14.32;;
79790;SDS011;69278;52.220;5.172;2023-05-07T05:59:58;21.27;;;14.38;;
79790;SDS011;69278;52.220;5.172;2023-05-07T06:02:24;21.40;;;14.80;;
79790;SDS011;69278;52.220;5.172;2023-05-07T06:04:51;21.17;;;15.02;;
79790;SDS011;69278;52.220;5.172;2023-05-07T06:07:17;22.00;;;14.65;;
79790;SDS011;69278;52.220;5.172;2023-05-07T06:09:44;20.65;;;14.10;;
79790;SDS011;69278;52.220;5.172;2023-05-07T06:12:11;20.38;;;14.35;;
79790;SDS011;69278;52.220;5.172;2023-05-07T06:14:37;19.77;;;14.47;;
79790;SDS011;69278;52.220;5.172;2023-05-07T06:17:04;19.20;;;14.23;;
79790;SDS011;69278;52.220;5.172;2023-05-07T06:19:31;22.73;;;14.75;;
79790;SDS011;69278;52.220;5.172;2023-05-07T06:21:58;20.33;;;14.93;;
79790;SDS011;69278;52.220;5.172;2023-05-07T06:24:24;22.13;;;15.57;;
79790;SDS011;69278;52.220;5.172;2023-05-07T06:26:50;22.13;;;14.97;;
79790;SDS011;69278;52.220;5.172;2023-05-07T06:29:18;21.55;;;14.77;;
79790;SDS011;69278;52.220;5.172;2023-05-07T06:31:44;23.98;;;15.63;;
79790;SDS011;69278;52.220;5.172;2023-05-07T06:34:11;24.95;;;16.50;;
79790;SDS011;69278;52.220;5.172;2023-05-07T06:36:40;26.33;;;16.70;;
79790;SDS011;69278;52.220;5.172;2023-05-07T06:39:07;23.50;;;15.57;;
79790;SDS011;69278;52.220;5.172;2023-05-07T06:41:33;24.83;;;16.08;;
79790;SDS011;69278;52.220;5.172;2023-05-07T06:44:02;24.10;;;16.30;;
79790;SDS011;69278;52.220;5.172;2023-05-07T06:46:28;24.27;;;15.98;;
79790;SDS011;69278;52.220;5.172;2023-05-07T06:48:55;25.10;;;15.88;;
79790;SDS011;69278;52.220;5.172;2023-05-07T06:51:22;23.37;;;15.70;;
79790;SDS011;69278;52.220;5.172;2023-05-07T06:53:49;23.33;;;15.68;;
79790;SDS011;69278;52.220;5.172;2023-05-07T06:56:15;22.88;;;15.73;;
79790;SDS011;69278;52.220;5.172;2023-05-07T06:58:42;24.90;;;16.05;;
79790;SDS011;69278;52.220;5.172;2023-05-07T07:01:08;23.52;;;16.25;;
79790;SDS011;69278;52.220;5.172;2023-05-07T07:03:35;24.23;;;17.17;;
79790;SDS011;69278;52.220;5.172;2023-05-07T07:06:01;28.73;;;17.33;;
79790;SDS011;69278;52.220;5.172;2023-05-07T07:08:28;25.23;;;16.35;;
79790;SDS011;69278;52.220;5.172;2023-05-07T07:10:55;25.33;;;16.73;;
79790;SDS011;69278;52.220;5.172;2023-05-07T07:13:21;24.75;;;16.83;;
79790;SDS011;69278;52.220;5.172;2023-05-07T07:15:48;24.60;;;17.03;;
79790;SDS011;69278;52.220;5.172;2023-05-07T07:18:14;25.02;;;16.52;;
79790;SDS011;69278;52.220;5.172;2023-05-07T07:20:41;24.27;;;16.33;;
79790;SDS011;69278;52.220;5.172;2023-05-07T07:23:07;22.88;;;16.83;;
79790;SDS011;69278;52.220;5.172;2023-05-07T07:25:34;23.45;;;16.80;;
79790;SDS011;69278;52.220;5.172;2023-05-07T07:28:00;24.53;;;16.00;;
79790;SDS011;69278;52.220;5.172;2023-05-07T07:30:27;22.30;;;16.13;;
79790;SDS011;69278;52.220;5.172;2023-05-07T07:32:54;23.88;;;16.50;;
79790;SDS011;69278;52.220;5.172;2023-05-07T07:35:21;23.70;;;17.17;;
79790;SDS011;69278;52.220;5.172;2023-05-07T07:37:48;24.90;;;16.83;;
79790;SDS011;69278;52.220;5.172;2023-05-07T07:40:16;23.53;;;16.50;;
79790;SDS011;69278;52.220;5.172;2023-05-07T07:42:43;24.35;;;16.77;;
79790;SDS011;69278;52.220;5.172;2023-05-07T07:45:09;22.20;;;15.48;;
79790;SDS011;69278;52.220;5.172;2023-05-07T07:47:36;23.02;;;16.55;;
79790;SDS011;69278;52.220;5.172;2023-05-07T07:50:02;23.25;;;16.88;;
79790;SDS011;69278;52.220;5.172;2023-05-07T07:52:29;24.20;;;16.33;;
79790;SDS011;69278;52.220;5.172;2023-05-07T07:54:56;26.27;;;16.95;;
79790;SDS011;69278;52.220;5.172;2023-05-07T07:57:22;22.95;;;16.10;;
79790;SDS011;69278;52.220;5.172;2023-05-07T07:59:49;24.30;;;16.27;;
79790;SDS011;69278;52.220;5.172;2023-05-07T08:02:16;25.92;;;17.40;;
79790;SDS011;69278;52.220;5.172;2023-05-07T08:04:43;23.70;;;16.07;;
79790;SDS011;69278;52.220;5.172;2023-05-07T08:07:10;25.52;;;16.73;;
79790;SDS011;69278;52.220;5.172;2023-05-07T08:09:37;25.25;;;17.40;;
79790;SDS011;69278;52.220;5.172;2023-05-07T08:12:04;23.63;;;16.73;;
79790;SDS011;69278;52.220;5.172;2023-05-07T08:14:32;24.02;;;16.88;;
79790;SDS011;69278;52.220;5.172;2023-05-07T08:16:58;24.27;;;17.40;;
79790;SDS011;69278;52.220;5.172;2023-05-07T08:19:25;27.02;;;17.30;;
79790;SDS011;69278;52.220;5.172;2023-05-07T08:21:52;23.25;;;17.17;;
79790;SDS011;69278;52.220;5.172;2023-05-07T08:24:18;23.73;;;16.98;;
79790;SDS011;69278;52.220;5.172;2023-05-07T08:26:44;21.20;;;15.10;;
79790;SDS011;69278;52.220;5.172;2023-05-07T08:29:13;24.23;;;16.47;;
79790;SDS011;69278;52.220;5.172;2023-05-07T08:31:39;24.48;;;16.08;;
79790;SDS011;69278;52.220;5.172;2023-05-07T08:34:06;24.20;;;16.70;;
79790;SDS011;69278;52.220;5.172;2023-05-07T08:36:35;22.88;;;16.35;;
79790;SDS011;69278;52.220;5.172;2023-05-07T08:39:01;23.83;;;17.02;;
79790;SDS011;69278;52.220;5.172;2023-05-07T08:41:28;24.40;;;16.37;;
79790;SDS011;69278;52.220;5.172;2023-05-07T08:43:55;20.63;;;14.88;;
79790;SDS011;69278;52.220;5.172;2023-05-07T08:46:25;25.13;;;16.48;;
79790;SDS011;69278;52.220;5.172;2023-05-07T08:48:51;20.90;;;14.70;;
79790;SDS011;69278;52.220;5.172;2023-05-07T08:51:19;21.02;;;15.10;;
79790;SDS011;69278;52.220;5.172;2023-05-07T08:53:47;22.37;;;15.27;;
79790;SDS011;69278;52.220;5.172;2023-05-07T08:56:15;22.55;;;15.38;;
79790;SDS011;69278;52.220;5.172;2023-05-07T08:58:43;22.55;;;15.82;;
79790;SDS011;69278;52.220;5.172;2023-05-07T09:01:14;21.42;;;15.10;;
79790;SDS011;69278;52.220;5.172;2023-05-07T09:03:44;19.77;;;14.18;;
79790;SDS011;69278;52.220;5.172;2023-05-07T09:06:12;20.93;;;14.00;;
79790;SDS011;69278;52.220;5.172;2023-05-07T09:08:39;18.92;;;13.93;;
79790;SDS011;69278;52.220;5.172;2023-05-07T09:11:05;18.80;;;13.05;;
79790;SDS011;69278;52.220;5.172;2023-05-07T09:13:31;20.40;;;14.13;;
79790;SDS011;69278;52.220;5.172;2023-05-07T09:15:58;21.60;;;14.38;;
79790;SDS011;69278;52.220;5.172;2023-05-07T09:18:40;18.33;;;12.77;;
79790;SDS011;69278;52.220;5.172;2023-05-07T09:21:10;17.48;;;13.80;;
79790;SDS011;69278;52.220;5.172;2023-05-07T09:23:37;17.60;;;12.98;;
79790;SDS011;69278;52.220;5.172;2023-05-07T09:26:04;19.20;;;12.93;;
79790;SDS011;69278;52.220;5.172;2023-05-07T09:28:34;17.95;;;12.48;;
79790;SDS011;69278;52.220;5.172;2023-05-07T09:31:01;17.63;;;12.50;;
79790;SDS011;69278;52.220;5.172;2023-05-07T09:33:27;15.73;;;12.18;;
79790;SDS011;69278;52.220;5.172;2023-05-07T09:35:54;18.20;;;12.40;;
79790;SDS011;69278;52.220;5.172;2023-05-07T09:38:21;18.58;;;12.80;;
79790;SDS011;69278;52.220;5.172;2023-05-07T09:40:47;17.25;;;13.07;;
79790;SDS011;69278;52.220;5.172;2023-05-07T09:43:14;17.90;;;13.10;;
79790;SDS011;69278;52.220;5.172;2023-05-07T09:45:40;16.30;;;12.65;;
79790;SDS011;69278;52.220;5.172;2023-05-07T09:48:07;17.48;;;12.52;;
79790;SDS011;69278;52.220;5.172;2023-05-07T09:50:40;14.98;;;11.10;;
79790;SDS011;69278;52.220;5.172;2023-05-07T09:53:14;16.33;;;11.43;;
79790;SDS011;69278;52.220;5.172;2023-05-07T09:55:43;16.63;;;11.70;;
79790;SDS011;69278;52.220;5.172;2023-05-07T09:58:10;15.75;;;11.98;;
79790;SDS011;69278;52.220;5.172;2023-05-07T10:00:41;15.65;;;10.80;;
79790;SDS011;69278;52.220;5.172;2023-05-07T10:03:08;13.43;;;10.13;;
79790;SDS011;69278;52.220;5.172;2023-05-07T10:05:35;15.02;;;9.32;;
79790;SDS011;69278;52.220;5.172;2023-05-07T10:08:02;11.30;;;8.47;;
79790;SDS011;69278;52.220;5.172;2023-05-07T10:10:30;13.15;;;9.75;;
79790;SDS011;69278;52.220;5.172;2023-05-07T10:12:58;12.05;;;7.82;;
79790;SDS011;69278;52.220;5.172;2023-05-07T10:15:25;17.38;;;9.85;;
79790;SDS011;69278;52.220;5.172;2023-05-07T10:17:52;15.50;;;10.20;;
79790;SDS011;69278;52.220;5.172;2023-05-07T10:20:20;16.07;;;9.90;;
79790;SDS011;69278;52.220;5.172;2023-05-07T10:22:47;12.75;;;8.57;;
79790;SDS011;69278;52.220;5.172;2023-05-07T10:25:17;13.57;;;8.77;;
79790;SDS011;69278;52.220;5.172;2023-05-07T10:27:47;13.38;;;8.90;;
79790;SDS011;69278;52.220;5.172;2023-05-07T10:33:08;10.80;;;8.20;;
79790;SDS011;69278;52.220;5.172;2023-05-07T10:35:38;13.73;;;9.80;;
79790;SDS011;69278;52.220;5.172;2023-05-07T10:38:07;15.80;;;10.57;;
79790;SDS011;69278;52.220;5.172;2023-05-07T10:40:34;13.77;;;9.38;;
79790;SDS011;69278;52.220;5.172;2023-05-07T10:43:02;12.18;;;8.98;;
79790;SDS011;69278;52.220;5.172;2023-05-07T10:45:35;13.47;;;9.43;;
79790;SDS011;69278;52.220;5.172;2023-05-07T10:48:14;14.43;;;9.10;;
79790;SDS011;69278;52.220;5.172;2023-05-07T10:53:48;12.45;;;7.95;;
79790;SDS011;69278;52.220;5.172;2023-05-07T10:58:44;12.50;;;7.17;;
79790;SDS011;69278;52.220;5.172;2023-05-07T11:01:11;9.68;;;7.25;;
79790;SDS011;69278;52.220;5.172;2023-05-07T11:06:39;12.70;;;8.00;;
79790;SDS011;69278;52.220;5.172;2023-05-07T11:09:06;11.82;;;7.25;;
79790;SDS011;69278;52.220;5.172;2023-05-07T11:11:45;9.83;;;5.43;;
79790;SDS011;69278;52.220;5.172;2023-05-07T11:14:14;7.72;;;4.28;;
79790;SDS011;69278;52.220;5.172;2023-05-07T11:17:01;7.88;;;4.30;;
79790;SDS011;69278;52.220;5.172;2023-05-07T11:19:47;8.18;;;4.65;;
79790;SDS011;69278;52.220;5.172;2023-05-07T11:25:01;5.97;;;3.53;;
79790;SDS011;69278;52.220;5.172;2023-05-07T11:27:32;7.05;;;3.60;;
79790;SDS011;69278;52.220;5.172;2023-05-07T11:29:59;8.02;;;3.80;;
79790;SDS011;69278;52.220;5.172;2023-05-07T11:34:56;6.35;;;3.90;;
79790;SDS011;69278;52.220;5.172;2023-05-07T11:37:24;6.80;;;3.83;;
79790;SDS011;69278;52.220;5.172;2023-05-07T11:40:05;8.15;;;3.75;;
79790;SDS011;69278;52.220;5.172;2023-05-07T11:42:34;6.85;;;4.00;;
79790;SDS011;69278;52.220;5.172;2023-05-07T11:45:03;6.45;;;3.15;;
79790;SDS011;69278;52.220;5.172;2023-05-07T11:47:31;7.88;;;3.22;;
79790;SDS011;69278;52.220;5.172;2023-05-07T11:50:05;7.67;;;3.50;;
79790;SDS011;69278;52.220;5.172;2023-05-07T11:52:34;6.90;;;3.75;;
79790;SDS011;69278;52.220;5.172;2023-05-07T11:55:01;6.15;;;3.20;;
79790;SDS011;69278;52.220;5.172;2023-05-07T11:57:29;7.72;;;3.30;;
79790;SDS011;69278;52.220;5.172;2023-05-07T11:59:56;7.30;;;3.15;;
79790;SDS011;69278;52.220;5.172;2023-05-07T12:02:24;6.43;;;3.20;;
79790;SDS011;69278;52.220;5.172;2023-05-07T12:04:52;6.90;;;3.17;;
79790;SDS011;69278;52.220;5.172;2023-05-07T12:07:19;8.35;;;3.60;;
79790;SDS011;69278;52.220;5.172;2023-05-07T12:09:47;6.30;;;3.40;;
79790;SDS011;69278;52.220;5.172;2023-05-07T12:12:13;6.25;;;3.38;;
79790;SDS011;69278;52.220;5.172;2023-05-07T12:14:42;6.03;;;3.37;;
79790;SDS011;69278;52.220;5.172;2023-05-07T12:17:09;6.32;;;3.10;;
79790;SDS011;69278;52.220;5.172;2023-05-07T12:19:38;5.93;;;3.20;;
79790;SDS011;69278;52.220;5.172;2023-05-07T12:22:07;6.63;;;3.13;;
79790;SDS011;69278;52.220;5.172;2023-05-07T12:24:47;5.05;;;2.80;;
79790;SDS011;69278;52.220;5.172;2023-05-07T12:27:15;5.50;;;3.00;;
79790;SDS011;69278;52.220;5.172;2023-05-07T12:29:46;4.85;;;2.67;;
79790;SDS011;69278;52.220;5.172;2023-05-07T12:32:14;7.22;;;3.40;;
79790;SDS011;69278;52.220;5.172;2023-05-07T12:34:42;6.22;;;3.10;;
79790;SDS011;69278;52.220;5.172;2023-05-07T12:37:11;7.93;;;3.70;;
79790;SDS011;69278;52.220;5.172;2023-05-07T12:39:44;6.03;;;3.63;;
79790;SDS011;69278;52.220;5.172;2023-05-07T12:42:16;6.32;;;3.15;;
79790;SDS011;69278;52.220;5.172;2023-05-07T12:44:46;7.10;;;4.40;;
79790;SDS011;69278;52.220;5.172;2023-05-07T12:47:13;6.85;;;4.25;;
79790;SDS011;69278;52.220;5.172;2023-05-07T12:49:41;8.52;;;4.50;;
79790;SDS011;69278;52.220;5.172;2023-05-07T12:52:11;5.87;;;4.07;;
79790;SDS011;69278;52.220;5.172;2023-05-07T12:54:38;7.78;;;4.10;;
79790;SDS011;69278;52.220;5.172;2023-05-07T12:57:06;8.93;;;4.68;;
79790;SDS011;69278;52.220;5.172;2023-05-07T12:59:34;6.82;;;4.25;;
79790;SDS011;69278;52.220;5.172;2023-05-07T13:02:02;10.32;;;4.72;;
79790;SDS011;69278;52.220;5.172;2023-05-07T13:04:29;9.87;;;4.80;;
79790;SDS011;69278;52.220;5.172;2023-05-07T13:06:56;6.80;;;4.15;;
79790;SDS011;69278;52.220;5.172;2023-05-07T13:09:22;6.80;;;4.13;;
79790;SDS011;69278;52.220;5.172;2023-05-07T13:11:49;6.80;;;3.92;;
79790;SDS011;69278;52.220;5.172;2023-05-07T13:14:15;8.63;;;4.63;;
79790;SDS011;69278;52.220;5.172;2023-05-07T13:16:42;8.73;;;4.70;;
79790;SDS011;69278;52.220;5.172;2023-05-07T13:19:08;8.15;;;4.90;;
79790;SDS011;69278;52.220;5.172;2023-05-07T13:21:35;8.77;;;4.80;;
79790;SDS011;69278;52.220;5.172;2023-05-07T13:24:01;8.63;;;5.28;;
79790;SDS011;69278;52.220;5.172;2023-05-07T13:26:29;8.98;;;5.13;;
79790;SDS011;69278;52.220;5.172;2023-05-07T13:28:57;7.77;;;5.10;;
79790;SDS011;69278;52.220;5.172;2023-05-07T13:31:23;9.95;;;5.80;;
79790;SDS011;69278;52.220;5.172;2023-05-07T13:33:52;9.60;;;6.03;;
79790;SDS011;69278;52.220;5.172;2023-05-07T13:36:19;9.80;;;5.78;;
79790;SDS011;69278;52.220;5.172;2023-05-07T13:38:45;10.02;;;6.30;;
79790;SDS011;69278;52.220;5.172;2023-05-07T13:41:12;8.27;;;5.60;;
79790;SDS011;69278;52.220;5.172;2023-05-07T13:43:39;23.55;;;6.47;;
79790;SDS011;69278;52.220;5.172;2023-05-07T13:46:05;11.65;;;6.95;;
79790;SDS011;69278;52.220;5.172;2023-05-07T13:48:32;10.00;;;7.13;;
79790;SDS011;69278;52.220;5.172;2023-05-07T13:50:58;11.05;;;7.30;;
79790;SDS011;69278;52.220;5.172;2023-05-07T13:53:25;13.13;;;6.40;;
79790;SDS011;69278;52.220;5.172;2023-05-07T13:55:51;10.75;;;7.32;;
79790;SDS011;69278;52.220;5.172;2023-05-07T13:58:18;15.27;;;8.30;;
79790;SDS011;69278;52.220;5.172;2023-05-07T14:00:44;14.20;;;8.25;;
79790;SDS011;69278;52.220;5.172;2023-05-07T14:03:11;12.57;;;8.13;;
79790;SDS011;69278;52.220;5.172;2023-05-07T14:05:38;13.17;;;8.30;;
79790;SDS011;69278;52.220;5.172;2023-05-07T14:08:04;12.75;;;8.43;;
79790;SDS011;69278;52.220;5.172;2023-05-07T14:10:31;14.38;;;9.02;;
79790;SDS011;69278;52.220;5.172;2023-05-07T14:13:00;12.90;;;8.23;;
79790;SDS011;69278;52.220;5.172;2023-05-07T14:15:27;12.00;;;7.70;;
79790;SDS011;69278;52.220;5.172;2023-05-07T14:17:53;12.37;;;8.17;;
79790;SDS011;69278;52.220;5.172;2023-05-07T14:20:20;14.20;;;8.38;;
79790;SDS011;69278;52.220;5.172;2023-05-07T14:22:46;12.70;;;7.85;;
79790;SDS011;69278;52.220;5.172;2023-05-07T14:25:13;13.93;;;8.80;;
79790;SDS011;69278;52.220;5.172;2023-05-07T14:27:39;18.02;;;9.57;;
79790;SDS011;69278;52.220;5.172;2023-05-07T14:30:06;17.30;;;10.00;;
79790;SDS011;69278;52.220;5.172;2023-05-07T14:32:33;15.77;;;10.25;;
79790;SDS011;69278;52.220;5.172;2023-05-07T14:35:00;18.85;;;11.55;;
79790;SDS011;69278;52.220;5.172;2023-05-07T14:37:27;15.48;;;9.15;;
79790;SDS011;69278;52.220;5.172;2023-05-07T14:39:54;17.73;;;10.60;;
79790;SDS011;69278;52.220;5.172;2023-05-07T14:42:20;20.40;;;9.30;;
79790;SDS011;69278;52.220;5.172;2023-05-07T14:44:47;16.75;;;9.25;;